Tropical Cyclones
[Index]
Main Index Home Page Stock Weather Photos Extreme Storms Discussion Storm News and Storm Chasing Reports Tropical Cyclones / Hurricanes / Typhoons Weather Data and Links Wild Fires / Bushfires Weather Observation Techniques Weather Picture Catalogue Tornado Pictures and Reports Stock Video Footage and DVDs for sale
Season 1983-1984 Tropical Cyclone VIVIENNE-FANJA Track Map
Season 1983-1984 Summaries: [BoM-AU] [JTWC-AU] [JTWC-SIO] [JTWC-SPAC] [JTWC-SH]
<<- Previous TC | JTWC 1983-1984 Season | Next TC ->>

click for intensity scale information  Lat/long Grid: Show Hide

 Date Labels: Show Hide

Joint Typhoon Warning Centre Cyclone Data

Name: VIVIENNE-FANJA

22 Jan 1984 06:00 UTC to 30 Jan 1984 06:00 UTC

    date/time    lat    long     hPa   cat  kts
1984-01-22 06    7.9    85.5                  25          
1984-01-22 12    8.1    86.8                  25          
1984-01-22 18    8.5    88.1                  25          
1984-01-23 00    9.0    89.3                  25          
1984-01-23 06    9.7    90.4                  25          
1984-01-23 12   10.6    91.0                  25          
1984-01-23 18   11.6    90.9                  25          
1984-01-24 00   12.5    90.5                  25          
1984-01-24 06   13.4    89.9                  30          
1984-01-24 12   14.0    89.2                  30          
1984-01-24 18   14.3    88.4                  35          
1984-01-25 00   14.7    87.5                  35          
1984-01-25 06   14.9    86.6            1     40          
1984-01-25 12   14.9    85.8            1     40          
1984-01-25 18   14.9    85.0            1     45          
1984-01-26 00   14.9    84.3            1     50          
1984-01-26 06   14.9    83.6            2     55          
1984-01-26 12   14.9    82.8            2     60          
1984-01-26 18   15.0    82.1            2     65          
1984-01-27 00   15.1    81.4            2     70          
1984-01-27 06   15.2    80.7            3     75          
1984-01-27 12   15.5    80.0            3     75          
1984-01-27 18   15.8    79.2            2     70          
1984-01-28 00   16.1    78.2            2     65          
1984-01-28 06   16.3    77.2            2     60          
1984-01-28 12   16.5    76.2            2     60          
1984-01-28 18   16.7    75.2            2     55          
1984-01-29 00   17.1    74.2            1     50          
1984-01-29 06   17.8    73.1            1     45          
1984-01-29 12   18.6    72.0            1     45          
1984-01-29 18   19.4    70.7            1     40          
1984-01-30 00   19.9    69.3                  35          
1984-01-30 06   20.3    67.6                  30          
Winds are 1-min average.

Tropical cyclone tracks developed by Michael Bath using data from the Joint Typhoon Warning Centre Best Tracks and Google Maps.


[Australian Severe Weather index] [Copyright Notice] [Email Contacts] [Search This Site] [Privacy Policy]
Document: tropical_cyclone_vivienne-fanja.htm Updated: 18 September 2016